createdAt,value
2023-04-15T00:01:46.916Z,54156.44
2023-04-15T00:04:13.483Z,54179.19
2023-04-15T00:06:52.375Z,54187.47
2023-04-15T00:09:19.530Z,54179.19
2023-04-15T00:11:46.290Z,54210.19
2023-04-15T00:14:16.570Z,54191.59
2023-04-15T00:16:42.977Z,54218.47
2023-04-15T00:19:09.473Z,54216.41
2023-04-15T00:21:46.054Z,54228.81
2023-04-15T00:24:12.378Z,54210.19
2023-04-15T00:26:41.931Z,54239.16
2023-04-15T00:29:08.207Z,54224.69
2023-04-15T00:31:34.649Z,54208.13
2023-04-15T00:34:03.401Z,54292.91
2023-04-15T00:36:29.681Z,54292.91
2023-04-15T00:38:55.950Z,54326.00
2023-04-15T00:41:23.063Z,54336.34
2023-04-15T00:43:49.377Z,54348.75
2023-04-15T00:46:16.439Z,54412.84
2023-04-15T00:48:43.118Z,54448.00
2023-04-15T00:51:09.638Z,54445.94
2023-04-15T00:53:36.003Z,54452.16
2023-04-15T00:56:02.317Z,54437.66
2023-04-15T00:58:28.643Z,54468.69
2023-04-15T01:00:55.599Z,54479.03
2023-04-15T01:03:22.236Z,54547.28
2023-04-15T01:05:53.293Z,54555.53
2023-04-15T01:08:19.726Z,54563.81
2023-04-15T01:10:46.031Z,54638.25
2023-04-15T01:13:13.565Z,54778.88
2023-04-15T01:15:40.016Z,54811.97
2023-04-15T01:18:09.573Z,54882.28
2023-04-15T01:20:36.290Z,55002.25
2023-04-15T01:23:05.605Z,55132.56
2023-04-15T01:25:35.605Z,55229.75
2023-04-15T01:28:04.964Z,55343.53
2023-04-15T01:30:34.693Z,55502.78
2023-04-15T01:33:01.390Z,55660.00
2023-04-15T01:35:27.834Z,55879.28
2023-04-15T01:37:54.617Z,55931.00
2023-04-15T01:40:21.508Z,56015.81
2023-04-15T01:42:47.811Z,56100.63
2023-04-15T01:45:14.210Z,56268.22
2023-04-15T01:47:41.871Z,56442.00
2023-04-15T01:50:08.453Z,56597.19
2023-04-15T01:52:34.979Z,56605.44
2023-04-15T01:55:04.333Z,56899.25
2023-04-15T01:57:30.691Z,56928.25
2023-04-15T01:59:57.076Z,57153.78
2023-04-15T02:02:23.562Z,57079.28
2023-04-15T02:04:50.391Z,57397.97
2023-04-15T02:07:21.662Z,57395.91
2023-04-15T02:09:48.098Z,57397.97
2023-04-15T02:12:14.457Z,57782.91
2023-04-15T02:14:41.430Z,57743.59
2023-04-15T02:17:08.545Z,57838.81
2023-04-15T02:19:35.381Z,58062.34
2023-04-15T02:22:05.537Z,58056.13
2023-04-15T02:24:31.850Z,58219.66
2023-04-15T02:26:58.203Z,58201.00
2023-04-15T02:29:27.810Z,58043.72
2023-04-15T02:31:54.213Z,57787.06
2023-04-15T02:34:20.799Z,57857.44
2023-04-15T02:36:48.669Z,57865.72
2023-04-15T02:39:16.985Z,57687.72
2023-04-15T02:41:43.864Z,57604.94
2023-04-15T02:44:11.442Z,57340.03
2023-04-15T02:46:41.303Z,57820.19
2023-04-15T02:49:08.481Z,57979.53
2023-04-15T02:51:34.768Z,57683.56
2023-04-15T02:54:01.525Z,57635.97
2023-04-15T02:56:29.987Z,57917.44
2023-04-15T02:58:56.734Z,58145.13
2023-04-15T03:01:23.096Z,58437.00
2023-04-15T03:03:49.654Z,58757.84
2023-04-15T03:06:16.602Z,59029.06
2023-04-15T03:08:44.229Z,59494.91
2023-04-15T03:11:10.604Z,59704.03
2023-04-15T03:13:37.021Z,60068.50
2023-04-15T03:16:04.711Z,60205.19
2023-04-15T03:18:33.412Z,60967.34
2023-04-15T03:20:59.764Z,60967.34
2023-04-15T03:23:26.265Z,61377.50
2023-04-15T03:25:54.682Z,61481.06
2023-04-15T03:28:21.078Z,61978.28
2023-04-15T03:30:47.385Z,63457.88
2023-04-15T03:33:13.732Z,63296.22
2023-04-15T03:35:40.159Z,63959.47
2023-04-15T03:38:06.499Z,64556.53
2023-04-15T03:40:35.534Z,65249.03
2023-04-15T03:43:04.062Z,66178.09
2023-04-15T03:45:32.903Z,66327.44
2023-04-15T03:48:15.601Z,66360.63
2023-04-15T03:50:43.309Z,66806.59
2023-04-15T03:53:09.618Z,66288.03
2023-04-15T03:55:38.754Z,66904.06
2023-04-15T03:58:05.076Z,67408.19
2023-04-15T04:00:31.435Z,68151.00
2023-04-15T04:02:58.328Z,68713.38
2023-04-15T04:05:24.845Z,69686.84
2023-04-15T04:07:52.432Z,70666.78
2023-04-15T04:10:18.832Z,70818.38
2023-04-15T04:12:45.194Z,71015.63
2023-04-15T04:15:11.555Z,70905.56
2023-04-15T04:17:38.020Z,71165.16
2023-04-15T04:20:05.706Z,72961.84
2023-04-15T04:22:32.033Z,73493.75
2023-04-15T04:24:59.957Z,74025.72
2023-04-15T04:27:26.618Z,75622.03
2023-04-15T04:29:52.985Z,76686.59
2023-04-15T04:32:21.784Z,77751.44
2023-04-15T04:34:48.214Z,78283.97
2023-04-15T04:37:14.573Z,78017.69
2023-04-15T04:39:41.126Z,78816.56
2023-04-15T04:42:07.441Z,78816.56
2023-04-15T04:44:33.728Z,80148.38
2023-04-15T04:47:00.285Z,80148.38
2023-04-15T04:49:26.712Z,80414.81
2023-04-15T04:51:53.307Z,80148.38
2023-04-15T04:54:19.647Z,80414.81
2023-04-15T04:56:46.578Z,80947.69
2023-04-15T04:59:13.113Z,81214.16
2023-04-15T05:01:39.514Z,80681.25
2023-04-15T05:04:07.536Z,80148.38
2023-04-15T05:06:35.726Z,80681.25
2023-04-15T05:09:03.379Z,80681.25
2023-04-15T05:11:29.900Z,79615.59
2023-04-15T05:13:56.187Z,79082.91
2023-04-15T05:16:22.622Z,79082.91
2023-04-15T05:18:49.090Z,78550.25
2023-04-15T05:21:15.506Z,78017.69
2023-04-15T05:23:41.829Z,77218.97
2023-04-15T05:26:08.293Z,76154.28
2023-04-15T05:28:36.295Z,75355.94
2023-04-15T05:31:02.691Z,74557.75
2023-04-15T05:33:30.213Z,74557.75
2023-04-15T05:35:56.525Z,74025.72
2023-04-15T05:38:23.427Z,73493.75
2023-04-15T05:40:56.548Z,73227.78
2023-04-15T05:43:26.751Z,73227.78
2023-04-15T05:45:55.751Z,70704.16
2023-04-15T05:48:22.060Z,69954.66
2023-04-15T05:50:48.444Z,69610.03
2023-04-15T05:53:16.437Z,68215.34
2023-04-15T05:55:45.372Z,68167.59
2023-04-15T05:58:19.311Z,67267.13
2023-04-15T06:00:46.214Z,66171.88
2023-04-15T06:03:13.129Z,64486.03
2023-04-15T06:05:40.606Z,62829.91
2023-04-15T06:08:06.951Z,59913.19
2023-04-15T06:10:36.465Z,57342.09
2023-04-15T06:13:03.960Z,55740.69
2023-04-15T06:15:30.375Z,55151.16
2023-04-15T06:17:59.436Z,54770.63
2023-04-15T06:20:26.121Z,55004.31
2023-04-15T06:22:52.504Z,55256.66
2023-04-15T06:25:19.117Z,55283.53
2023-04-15T06:27:45.943Z,55225.63
2023-04-15T06:30:12.418Z,54989.84
2023-04-15T06:32:38.818Z,55010.53
2023-04-15T06:35:05.480Z,54855.41
2023-04-15T06:37:32.564Z,54795.44
2023-04-15T06:39:58.884Z,54590.69
2023-04-15T06:42:25.582Z,54381.84
2023-04-15T06:44:51.905Z,54352.88
2023-04-15T06:47:20.569Z,54187.47
2023-04-15T06:49:48.112Z,54164.72
2023-04-15T06:52:16.045Z,54092.34
2023-04-15T06:54:42.696Z,53945.53
2023-04-15T06:57:09.623Z,53939.34
2023-04-15T06:59:38.425Z,53904.19
2023-04-15T07:02:04.901Z,53887.63
2023-04-15T07:04:31.540Z,53846.28
2023-04-15T07:06:57.943Z,53854.56
2023-04-15T07:09:26.041Z,53852.50
2023-04-15T07:11:52.681Z,53895.91
2023-04-15T07:14:18.979Z,53862.81
2023-04-15T07:16:45.601Z,53887.63
2023-04-15T07:19:12.010Z,53875.22
2023-04-15T07:21:39.467Z,53883.50
2023-04-15T07:24:07.898Z,53914.53
2023-04-15T07:26:34.424Z,53908.31
2023-04-15T07:29:01.293Z,53902.13
2023-04-15T07:31:27.949Z,53897.97
2023-04-15T07:33:54.937Z,53887.63
2023-04-15T07:36:21.239Z,53885.56
2023-04-15T07:38:47.681Z,53902.13
2023-04-15T07:41:16.172Z,53906.25
2023-04-15T07:43:47.981Z,53935.19
2023-04-15T07:46:14.613Z,53931.06
2023-04-15T07:48:42.620Z,53924.84
2023-04-15T07:51:10.760Z,53947.59
2023-04-15T07:53:38.320Z,53926.94
2023-04-15T07:56:07.005Z,53916.59
2023-04-15T07:58:33.286Z,53889.72
2023-04-15T08:00:59.884Z,53902.13
2023-04-15T08:03:26.703Z,53887.63
2023-04-15T08:05:54.338Z,53869.03
2023-04-15T08:08:20.669Z,53914.53
2023-04-15T08:10:47.110Z,53864.91
2023-04-15T08:13:20.979Z,53891.78
2023-04-15T08:15:53.623Z,53875.22
2023-04-15T08:18:19.949Z,53871.09
2023-04-15T08:20:48.520Z,53877.31
2023-04-15T08:23:19.415Z,53883.50
2023-04-15T08:25:45.794Z,53877.31
2023-04-15T08:28:12.105Z,53869.03
2023-04-15T08:30:43.381Z,53869.03
2023-04-15T08:33:09.773Z,53819.41
2023-04-15T08:35:36.076Z,53846.28
2023-04-15T08:38:02.703Z,53854.56
2023-04-15T08:40:29.858Z,53844.22
2023-04-15T08:42:56.163Z,53877.31
2023-04-15T08:45:22.466Z,53877.31
2023-04-15T08:47:48.815Z,53862.81
2023-04-15T08:50:15.235Z,53871.09
2023-04-15T08:52:42.226Z,53856.63
2023-04-15T08:55:08.569Z,53850.41
2023-04-15T08:57:34.900Z,53858.69
2023-04-15T09:00:03.115Z,53835.94
2023-04-15T09:02:31.589Z,53850.41
2023-04-15T09:04:57.941Z,53858.69
2023-04-15T09:07:24.351Z,53860.75
2023-04-15T09:09:51.557Z,53902.13
2023-04-15T09:12:17.903Z,53904.19
2023-04-15T09:14:47.324Z,53877.31
2023-04-15T09:17:14.088Z,53891.78
2023-04-15T09:19:40.366Z,53869.03
2023-04-15T09:22:06.753Z,53852.50
2023-04-15T09:24:38.091Z,53871.09
2023-04-15T09:27:04.410Z,53895.91
2023-04-15T09:29:31.385Z,53910.38
2023-04-15T09:31:58.541Z,53871.09
2023-04-15T09:34:35.548Z,53906.25
2023-04-15T09:37:02.094Z,53912.44
2023-04-15T09:39:28.413Z,53902.13
2023-04-15T09:42:04.323Z,53922.78
2023-04-15T09:44:30.814Z,53943.47
2023-04-15T09:46:57.100Z,53918.66
2023-04-15T09:49:23.621Z,53914.53
2023-04-15T09:52:04.466Z,53910.38
2023-04-15T09:54:36.394Z,53941.41
2023-04-15T09:57:07.168Z,53951.75
2023-04-15T09:59:33.586Z,53941.41
2023-04-15T10:02:00.043Z,53933.13
2023-04-15T10:04:26.614Z,53937.25
2023-04-15T10:06:55.529Z,53918.66
2023-04-15T10:09:22.037Z,53943.47
2023-04-15T10:11:48.528Z,53943.47
2023-04-15T10:14:15.930Z,53945.53
2023-04-15T10:16:43.140Z,53914.53
2023-04-15T10:19:09.586Z,53943.47
2023-04-15T10:21:36.718Z,53937.25
2023-04-15T10:24:03.285Z,53929.00
2023-04-15T10:26:29.764Z,53964.16
2023-04-15T10:29:00.132Z,53955.88
2023-04-15T10:31:26.891Z,53941.41
2023-04-15T10:33:53.390Z,53986.88
2023-04-15T10:36:20.305Z,53957.94
2023-04-15T10:38:46.760Z,53970.34
2023-04-15T10:41:19.967Z,53937.25
2023-04-15T10:43:50.178Z,53949.66
2023-04-15T10:46:23.918Z,53951.75
2023-04-15T10:48:51.477Z,53908.31
2023-04-15T10:51:26.385Z,53931.06
2023-04-15T10:53:56.324Z,53951.75
2023-04-15T10:56:22.894Z,53918.66
2023-04-15T10:58:49.180Z,53947.59
2023-04-15T11:01:15.498Z,53949.66
2023-04-15T11:03:43.163Z,53995.16
2023-04-15T11:06:09.672Z,53924.84
2023-04-15T11:08:56.276Z,53935.19
2023-04-15T11:11:22.696Z,53955.88
2023-04-15T11:13:49.857Z,53922.78
2023-04-15T11:16:16.340Z,53937.25
2023-04-15T11:18:42.792Z,53929.00
2023-04-15T11:21:09.583Z,53964.16
2023-04-15T11:23:37.635Z,53931.06
2023-04-15T11:26:06.918Z,53947.59
2023-04-15T11:28:33.498Z,53926.94
2023-04-15T11:31:06.135Z,53953.81
2023-04-15T11:33:32.522Z,53933.13
2023-04-15T11:35:59.534Z,53960.00
2023-04-15T11:38:26.038Z,53914.53
2023-04-15T11:40:52.678Z,53931.06
2023-04-15T11:43:22.695Z,53939.34
2023-04-15T11:45:59.447Z,53949.66
2023-04-15T11:48:26.720Z,53951.75
2023-04-15T11:50:53.880Z,53935.19
2023-04-15T11:53:20.199Z,53931.06
2023-04-15T11:55:48.429Z,53939.34
2023-04-15T11:58:23.638Z,53951.75
2023-04-15T12:00:52.339Z,53935.19
2023-04-15T12:03:19.567Z,53966.22
2023-04-15T12:06:04.683Z,53953.81
2023-04-15T12:08:49.892Z,53964.16
2023-04-15T12:11:16.631Z,53960.00
2023-04-15T12:13:46.812Z,53926.94
2023-04-15T12:16:13.199Z,53947.59
2023-04-15T12:18:39.513Z,53943.47
2023-04-15T12:21:09.656Z,53941.41
2023-04-15T12:23:37.677Z,53931.06
2023-04-15T12:26:07.486Z,53970.34
2023-04-15T12:28:37.077Z,53929.00
2023-04-15T12:31:15.226Z,53924.84
2023-04-15T12:33:41.721Z,53957.94
2023-04-15T12:36:08.348Z,53972.41
2023-04-15T12:38:34.682Z,53980.69
2023-04-15T12:41:01.444Z,53970.34
2023-04-15T12:43:27.828Z,53976.53
2023-04-15T12:45:54.470Z,53962.06
2023-04-15T12:48:21.126Z,53966.22
2023-04-15T12:50:49.864Z,53972.41
2023-04-15T12:53:18.797Z,53988.94
2023-04-15T12:55:45.499Z,53962.06
2023-04-15T12:58:11.969Z,53986.88
2023-04-15T13:00:38.757Z,54026.16
2023-04-15T13:03:07.033Z,53951.75
2023-04-15T13:05:33.773Z,54003.44
2023-04-15T13:08:00.282Z,53972.41
2023-04-15T13:10:26.606Z,53988.94
2023-04-15T13:12:53.964Z,53972.41
2023-04-15T13:15:22.517Z,53976.53
2023-04-15T13:17:49.188Z,53999.28
2023-04-15T13:20:15.577Z,54001.34
2023-04-15T13:22:42.356Z,53976.53
2023-04-15T13:25:09.072Z,53988.94
2023-04-15T13:27:37.544Z,53988.94
2023-04-15T13:30:05.138Z,53988.94
2023-04-15T13:32:31.493Z,53980.69
2023-04-15T13:34:57.816Z,53953.81
2023-04-15T13:37:27.952Z,53968.28
2023-04-15T13:39:54.661Z,54003.44
2023-04-15T13:42:21.515Z,54003.44
2023-04-15T13:44:47.840Z,53988.94
2023-04-15T13:47:15.989Z,53964.16
2023-04-15T13:49:42.294Z,53982.75
2023-04-15T13:52:08.668Z,53964.16
2023-04-15T13:54:37.531Z,53993.09
2023-04-15T13:57:05.001Z,53974.47
2023-04-15T13:59:31.374Z,53997.22
2023-04-15T14:01:57.821Z,54001.34
2023-04-15T14:04:24.428Z,53993.09
2023-04-15T14:06:50.836Z,54013.75
2023-04-15T14:09:17.131Z,54009.63
2023-04-15T14:11:43.410Z,54007.56
2023-04-15T14:14:10.044Z,54040.66
2023-04-15T14:16:36.351Z,54067.53
2023-04-15T14:19:02.911Z,54125.44
2023-04-15T14:21:31.966Z,54110.94
2023-04-15T14:23:58.723Z,54170.91
2023-04-15T14:26:25.355Z,54195.72
2023-04-15T14:28:51.710Z,54218.47
2023-04-15T14:31:18.739Z,54278.44
2023-04-15T14:33:45.247Z,54330.13
2023-04-15T14:36:11.660Z,54365.28
2023-04-15T14:38:41.095Z,54357.03
2023-04-15T14:41:08.988Z,54443.88
2023-04-15T14:43:35.496Z,54414.91
2023-04-15T14:46:01.976Z,54429.41
2023-04-15T14:48:28.527Z,54497.63
2023-04-15T14:50:54.912Z,54530.72
2023-04-15T14:53:21.292Z,54625.84
2023-04-15T14:55:47.577Z,54630.00
2023-04-15T14:58:14.087Z,54640.34
2023-04-15T15:00:42.024Z,54758.22
2023-04-15T15:03:12.924Z,54830.59
2023-04-15T15:05:43.544Z,54911.25
2023-04-15T15:08:10.011Z,54975.38
2023-04-15T15:10:48.485Z,55118.06
2023-04-15T15:13:16.432Z,55215.28
2023-04-15T15:15:42.750Z,55308.38
2023-04-15T15:18:09.107Z,55264.94
2023-04-15T15:20:36.024Z,55511.06
2023-04-15T15:23:02.374Z,55283.53
2023-04-15T15:25:28.656Z,55271.13
2023-04-15T15:27:54.996Z,55304.22
2023-04-15T15:30:21.335Z,55368.34
2023-04-15T15:32:47.710Z,55523.47
2023-04-15T15:35:14.060Z,55614.50
2023-04-15T15:37:42.154Z,55455.22
2023-04-15T15:40:08.666Z,55490.38
2023-04-15T15:42:37.174Z,55624.84
2023-04-15T15:45:04.914Z,55593.81
2023-04-15T15:47:31.283Z,55817.22
2023-04-15T15:49:57.616Z,55966.16
2023-04-15T15:52:23.898Z,56086.16
2023-04-15T15:54:50.461Z,56239.25
2023-04-15T15:57:16.785Z,56249.59
2023-04-15T15:59:43.659Z,56139.94
2023-04-15T16:02:10.803Z,56015.81
2023-04-15T16:04:37.758Z,56113.03
2023-04-15T16:07:04.485Z,56129.59
2023-04-15T16:09:31.253Z,56053.06
2023-04-15T16:11:57.910Z,55883.41
2023-04-15T16:14:25.210Z,55786.19
2023-04-15T16:16:54.034Z,55755.16
2023-04-15T16:19:20.864Z,55800.66
2023-04-15T16:21:47.770Z,55835.84
2023-04-15T16:24:14.518Z,56189.59
2023-04-15T16:26:41.109Z,56290.97
2023-04-15T16:29:07.621Z,56181.31
2023-04-15T16:31:35.072Z,56233.03
2023-04-15T16:34:01.368Z,56082.00
2023-04-15T16:36:28.718Z,56028.22
2023-04-15T16:38:55.845Z,56276.47
2023-04-15T16:41:22.155Z,56063.41
2023-04-15T16:43:48.473Z,55895.81
2023-04-15T16:46:14.832Z,55964.09
2023-04-15T16:48:41.221Z,55875.13
2023-04-15T16:51:07.544Z,55850.31
2023-04-15T16:53:33.844Z,55953.75
2023-04-15T16:56:00.174Z,55858.59
2023-04-15T16:58:27.636Z,55968.22
2023-04-15T17:00:54.099Z,56024.09
2023-04-15T17:03:20.546Z,55906.16
2023-04-15T17:05:46.969Z,56077.88
2023-04-15T17:08:13.270Z,55957.88
2023-04-15T17:10:39.637Z,56119.25
2023-04-15T17:13:05.927Z,56040.63
2023-04-15T17:15:32.243Z,56048.91
2023-04-15T17:17:58.623Z,56166.84
2023-04-15T17:20:26.356Z,56369.59
2023-04-15T17:22:52.993Z,56338.56
2023-04-15T17:25:19.508Z,56353.03
2023-04-15T17:27:45.790Z,56388.22
2023-04-15T17:30:12.157Z,56309.59
2023-04-15T17:32:39.322Z,56448.19
2023-04-15T17:35:06.506Z,56518.56
2023-04-15T17:37:33.325Z,56483.38
2023-04-15T17:39:59.641Z,56708.91
2023-04-15T17:42:26.290Z,57008.94
2023-04-15T17:44:52.621Z,57313.13
2023-04-15T17:47:18.936Z,57455.94
2023-04-15T17:49:45.319Z,58198.94
2023-04-15T17:52:11.607Z,58846.88
2023-04-15T17:54:37.942Z,59035.28
2023-04-15T17:57:04.270Z,59113.94
2023-04-15T17:59:30.774Z,59318.91
2023-04-15T18:01:58.234Z,59517.69
2023-04-15T18:04:26.429Z,59080.81
2023-04-15T18:06:53.249Z,58826.16
2023-04-15T18:09:19.717Z,58534.28
2023-04-15T18:11:48.258Z,58559.13
2023-04-15T18:14:23.562Z,58691.59
2023-04-15T18:16:59.578Z,58952.47
2023-04-15T18:19:25.879Z,59033.19
2023-04-15T18:21:54.719Z,58834.44
2023-04-15T18:24:21.073Z,58890.34
2023-04-15T18:26:49.218Z,58944.19
2023-04-15T18:29:15.752Z,59062.19
2023-04-15T18:31:42.125Z,59826.22
2023-04-15T18:34:08.592Z,60116.13
2023-04-15T18:36:34.881Z,60588.31
2023-04-15T18:39:01.322Z,60627.66
2023-04-15T18:41:27.681Z,62115.03
2023-04-15T18:43:55.909Z,63578.09
2023-04-15T18:46:22.270Z,64614.56
2023-04-15T18:48:48.563Z,66275.56
2023-04-15T18:51:15.168Z,68136.47
2023-04-15T18:53:41.717Z,69331.91
2023-04-15T18:56:08.066Z,71302.22
2023-04-15T18:59:26.317Z,73134.28
2023-04-15T19:01:20.814Z,75089.84
2023-04-15T19:03:50.222Z,76154.28
2023-04-15T19:06:16.677Z,78550.25
2023-04-15T19:08:42.992Z,81214.16
2023-04-15T19:11:09.292Z,83879.81
2023-04-15T19:13:35.688Z,86280.44
2023-04-15T19:16:02.045Z,88682.47
2023-04-15T19:18:28.352Z,91085.94
2023-04-15T19:20:55.856Z,93490.84
2023-04-15T19:23:23.338Z,95362.31
2023-04-15T19:25:49.662Z,96967.13
2023-04-15T19:28:15.993Z,98037.34
2023-04-15T19:30:42.832Z,98840.19
2023-04-15T19:33:09.177Z,99910.91
2023-04-15T19:35:35.904Z,100981.91
2023-04-15T19:38:03.221Z,101785.34
2023-04-15T19:40:29.567Z,102053.22
2023-04-15T19:42:55.874Z,102321.06
2023-04-15T19:45:22.186Z,102856.84
2023-04-15T19:47:48.554Z,103392.72
2023-04-15T19:50:16.490Z,104196.63
2023-04-15T19:52:42.817Z,104196.63
2023-04-15T19:55:09.138Z,104732.66
2023-04-15T19:57:35.514Z,105536.84
2023-04-15T20:00:01.891Z,105536.84
2023-04-15T20:02:28.920Z,105536.84
2023-04-15T20:04:55.442Z,105536.84
2023-04-15T20:07:21.774Z,105536.84
2023-04-15T20:09:48.119Z,105804.94
2023-04-15T20:12:50.785Z,105536.84
2023-04-15T20:15:01.796Z,106073.06
2023-04-15T20:17:31.947Z,106341.19
2023-04-15T20:19:58.382Z,106341.19
2023-04-15T20:22:24.769Z,106609.34
2023-04-15T20:24:51.074Z,106609.34
2023-04-15T20:27:17.505Z,107145.69
2023-04-15T20:29:43.830Z,107413.88
2023-04-15T20:32:11.461Z,107682.09
2023-04-15T20:34:39.935Z,107413.88
2023-04-15T20:37:06.588Z,107145.69
2023-04-15T20:39:33.109Z,107145.69
2023-04-15T20:41:59.479Z,107413.88
2023-04-15T20:44:26.510Z,107413.88
2023-04-15T20:46:52.933Z,107682.09
2023-04-15T20:49:19.265Z,107682.09
2023-04-15T20:51:45.963Z,107682.09
2023-04-15T20:54:12.283Z,107145.69
2023-04-15T20:56:38.560Z,107145.69
2023-04-15T20:59:05.042Z,107413.88
2023-04-15T21:01:31.632Z,107413.88
2023-04-15T21:03:58.816Z,107413.88
2023-04-15T21:06:26.527Z,107682.09
2023-04-15T21:08:52.843Z,107682.09
2023-04-15T21:11:40.585Z,107413.88
2023-04-15T21:14:08.754Z,107682.09
2023-04-15T21:16:35.092Z,107682.09
2023-04-15T21:19:01.417Z,107413.88
2023-04-15T21:21:28.081Z,106877.50
2023-04-15T21:23:54.407Z,106877.50
2023-04-15T21:26:20.728Z,107145.69
2023-04-15T21:28:47.253Z,106609.34
2023-04-15T21:31:14.002Z,107145.69
2023-04-15T21:33:40.315Z,106877.50
2023-04-15T21:36:06.734Z,106877.50
2023-04-15T21:38:33.353Z,106609.34
2023-04-15T21:41:00.898Z,106341.19
2023-04-15T21:43:27.298Z,105804.94
2023-04-15T21:46:22.816Z,105268.75
2023-04-15T21:48:39.987Z,105000.69
2023-04-15T21:51:06.286Z,105000.69
2023-04-15T21:53:32.624Z,104732.66
2023-04-15T21:55:58.957Z,104732.66
2023-04-15T21:58:25.267Z,104464.63
2023-04-15T22:00:52.092Z,104196.63
2023-04-15T22:03:18.609Z,104196.63
2023-04-15T22:05:45.992Z,103928.63
2023-04-15T22:08:12.380Z,103928.63
2023-04-15T22:10:39.515Z,103660.66
2023-04-15T22:13:08.543Z,103660.66
2023-04-15T22:15:35.678Z,103392.72
2023-04-15T22:18:02.088Z,103124.78
2023-04-15T22:20:28.435Z,102588.97
2023-04-15T22:22:56.011Z,103124.78
2023-04-15T22:25:22.612Z,102856.84
2023-04-15T22:27:48.957Z,102321.06
2023-04-15T22:30:15.733Z,102856.84
2023-04-15T22:32:42.127Z,102588.97
2023-04-15T22:35:08.746Z,102588.97
2023-04-15T22:37:35.070Z,102856.84
2023-04-15T22:40:02.152Z,103124.78
2023-04-15T22:42:28.468Z,102588.97
2023-04-15T22:44:54.806Z,102856.84
2023-04-15T22:47:21.264Z,102588.97
2023-04-15T22:49:47.580Z,102588.97
2023-04-15T22:52:20.214Z,102856.84
2023-04-15T22:54:53.756Z,103124.78
2023-04-15T22:57:20.345Z,102588.97
2023-04-15T22:59:46.639Z,102588.97
2023-04-15T23:02:13.134Z,102588.97
2023-04-15T23:04:39.732Z,102321.06
2023-04-15T23:07:06.355Z,102321.06
2023-04-15T23:09:32.701Z,102856.84
2023-04-15T23:11:58.990Z,102588.97
2023-04-15T23:14:27.965Z,102856.84
2023-04-15T23:16:54.746Z,103392.72
2023-04-15T23:19:21.083Z,103928.63
2023-04-15T23:21:47.450Z,103928.63
2023-04-15T23:24:13.822Z,104464.63
2023-04-15T23:26:40.702Z,104732.66
2023-04-15T23:29:07.613Z,104464.63
2023-04-15T23:31:34.446Z,104732.66
2023-04-15T23:34:01.018Z,104732.66
2023-04-15T23:36:27.340Z,104732.66
2023-04-15T23:38:53.678Z,104732.66
2023-04-15T23:41:20.005Z,104464.63
2023-04-15T23:43:46.299Z,104464.63
2023-04-15T23:46:12.670Z,104464.63
2023-04-15T23:48:40.552Z,104732.66
2023-04-15T23:51:06.865Z,105000.69
2023-04-15T23:53:33.281Z,105000.69
2023-04-15T23:55:59.584Z,105000.69
2023-04-15T23:58:26.085Z,105000.69
